Time;durP1;ratioP1;P1;durP2;ratioP2;P2;SDS_P1;SDS_P2;PMS_P1;PMS_P2;Temp;Humidity;BMP_temperature;BMP_pressure;BME280_temperature;BME280_humidity;BME280_pressure;Samples;Min_cycle;Max_cycle;Signal;HPM_P1;HPM_P2
2023/03/29 00:01:41;;;;;;;9.77;4.95;;;16.90;55.50;;;;;;5088080;28;47496;-74
2023/03/29 00:04:09;;;;;;;7.57;3.83;;;17.00;55.60;;;;;;5088926;28;45182;-74
2023/03/29 00:06:37;;;;;;;9.25;5.28;;;17.00;55.50;;;;;;5088495;28;45273;-74
2023/03/29 00:09:05;;;;;;;13.55;7.00;;;17.00;55.50;;;;;;5088189;28;45244;-74
2023/03/29 00:11:32;;;;;;;15.85;8.80;;;17.00;55.50;;;;;;5087971;28;45321;-74
2023/03/29 00:13:59;;;;;;;20.80;9.60;;;17.00;55.50;;;;;;5088106;28;46118;-74
2023/03/29 00:16:26;;;;;;;12.98;7.35;;;17.00;55.60;;;;;;5088839;28;45106;-74
2023/03/29 00:18:53;;;;;;;15.95;6.97;;;17.00;55.50;;;;;;5088549;28;45479;-75
2023/03/29 00:21:19;;;;;;;9.98;5.38;;;17.00;55.70;;;;;;5088156;28;48084;-74
2023/03/29 00:23:48;;;;;;;9.07;5.25;;;17.00;55.60;;;;;;5087774;28;45270;-74
2023/03/29 00:26:15;;;;;;;7.93;4.90;;;17.00;55.70;;;;;;5070832;28;45198;-74
2023/03/29 00:28:42;;;;;;;7.20;4.05;;;17.00;55.60;;;;;;5081805;27;45296;-74
2023/03/29 00:31:11;;;;;;;7.32;4.38;;;17.00;55.70;;;;;;5088193;28;45450;-74
2023/03/29 00:33:38;;;;;;;6.75;3.75;;;16.90;55.50;;;;;;5088276;28;45151;-74
2023/03/29 00:36:07;;;;;;;8.00;4.63;;;17.00;55.60;;;;;;5096062;27;45220;-75
2023/03/29 00:38:34;;;;;;;7.65;4.47;;;16.90;55.60;;;;;;5097037;27;45210;-74
2023/03/29 00:41:05;;;;;;;8.15;4.25;;;16.90;55.60;;;;;;5088215;28;47652;-75
2023/03/29 00:43:50;;;;;;;7.75;4.22;;;17.00;55.70;;;;;;5088027;28;45148;-75
2023/03/29 00:46:17;;;;;;;8.10;4.65;;;17.00;55.50;;;;;;5087380;27;45230;-74
2023/03/29 00:48:44;;;;;;;8.13;3.70;;;17.00;55.50;;;;;;5090572;28;45444;-74
2023/03/29 00:51:14;;;;;;;6.65;4.15;;;17.00;55.50;;;;;;5104646;27;48080;-74
2023/03/29 00:53:47;;;;;;;8.50;3.70;;;17.00;55.60;;;;;;5108278;27;45275;-74
2023/03/29 00:56:21;;;;;;;9.85;4.72;;;17.00;55.50;;;;;;5091038;27;45291;-75
2023/03/29 00:58:52;;;;;;;6.30;3.72;;;17.00;55.50;;;;;;5088087;28;45283;-74
2023/03/29 01:01:24;;;;;;;6.68;3.67;;;17.00;55.50;;;;;;5087315;28;46533;-75
2023/03/29 01:03:58;;;;;;;7.68;4.05;;;17.00;55.50;;;;;;5087656;28;45165;-74
2023/03/29 01:06:28;;;;;;;8.40;3.90;;;17.00;55.50;;;;;;5087855;28;45174;-75
2023/03/29 01:08:58;;;;;;;8.27;4.25;;;17.00;55.50;;;;;;5087994;28;45597;-74
2023/03/29 01:11:28;;;;;;;7.93;3.38;;;17.00;55.50;;;;;;5087667;28;46583;-74
2023/03/29 01:13:59;;;;;;;7.65;3.85;;;17.00;55.50;;;;;;5087677;28;45382;-74
2023/03/29 01:16:29;;;;;;;6.38;3.22;;;17.00;55.50;;;;;;5087787;28;45223;-74
2023/03/29 01:18:57;;;;;;;7.53;3.95;;;17.00;55.60;;;;;;5087623;28;45581;-75
2023/03/29 01:21:29;;;;;;;10.40;3.67;;;17.00;55.60;;;;;;5087260;28;46760;-74
2023/03/29 01:24:17;;;;;;;6.35;3.45;;;17.00;55.60;;;;;;5087382;28;45249;-75
2023/03/29 01:26:54;;;;;;;5.22;3.38;;;17.00;55.70;;;;;;5087383;28;45192;-75
2023/03/29 01:29:27;;;;;;;6.25;3.33;;;17.00;55.70;;;;;;5087944;28;45457;-74
2023/03/29 01:31:59;;;;;;;7.85;3.90;;;16.90;55.60;;;;;;5081412;28;45315;-74
2023/03/29 01:34:36;;;;;;;8.18;3.47;;;16.90;55.50;;;;;;5067051;28;45291;-75
2023/03/29 01:37:08;;;;;;;5.97;3.45;;;17.00;55.80;;;;;;5066973;28;45116;-74
2023/03/29 01:39:35;;;;;;;6.53;3.42;;;17.00;55.60;;;;;;5068546;28;45320;-75
2023/03/29 01:42:13;;;;;;;7.28;3.38;;;17.00;55.50;;;;;;5089941;28;47544;-74
2023/03/29 01:44:49;;;;;;;5.75;2.78;;;17.00;55.50;;;;;;5090766;27;46196;-75
2023/03/29 01:47:23;;;;;;;3.72;2.47;;;17.00;55.50;;;;;;5107676;27;45276;-74
2023/03/29 01:49:55;;;;;;;5.20;2.90;;;17.00;55.50;;;;;;5107893;27;45208;-74
2023/03/29 01:52:28;;;;;;;7.13;3.20;;;17.00;55.50;;;;;;5107576;27;48113;-74
2023/03/29 01:55:00;;;;;;;6.20;2.67;;;17.00;55.50;;;;;;5101287;27;45305;-74
2023/03/29 01:57:28;;;;;;;6.13;3.38;;;17.00;55.50;;;;;;5086081;28;45146;-74
2023/03/29 01:59:58;;;;;;;5.85;3.22;;;17.00;55.60;;;;;;5087360;28;45546;-74
2023/03/29 02:02:27;;;;;;;5.60;2.80;;;17.00;56.80;;;;;;5086640;28;48377;-74
2023/03/29 02:04:56;;;;;;;5.32;2.78;;;16.90;55.50;;;;;;5086949;28;45209;-74
2023/03/29 02:07:29;;;;;;;5.95;3.17;;;16.90;55.50;;;;;;5086728;28;45320;-75
2023/03/29 02:09:57;;;;;;;5.95;2.60;;;16.90;55.50;;;;;;5087236;28;45328;-74
2023/03/29 02:12:24;;;;;;;6.10;3.03;;;16.90;55.60;;;;;;5086803;28;45514;-74
2023/03/29 02:14:51;;;;;;;6.07;2.85;;;16.90;55.70;;;;;;5086663;28;45200;-74
2023/03/29 02:17:22;;;;;;;4.53;2.70;;;16.90;55.60;;;;;;5087161;28;45280;-74
2023/03/29 02:19:53;;;;;;;4.45;2.42;;;16.90;55.60;;;;;;5087117;28;45368;-75
2023/03/29 02:22:26;;;;;;;4.25;2.17;;;17.00;55.60;;;;;;5086709;28;47607;-74
2023/03/29 02:24:57;;;;;;;4.07;2.70;;;17.00;55.50;;;;;;5086575;28;45417;-74
2023/03/29 02:27:25;;;;;;;6.03;2.72;;;17.00;55.50;;;;;;5088195;27;45380;-75
2023/03/29 02:29:52;;;;;;;3.80;2.25;;;17.00;55.50;;;;;;5107312;27;45554;-74
2023/03/29 02:32:30;;;;;;;3.65;2.20;;;17.00;55.50;;;;;;5107100;27;48028;-75
2023/03/29 02:35:01;;;;;;;5.57;2.60;;;17.00;55.40;;;;;;5107206;27;45412;-74
2023/03/29 02:37:31;;;;;;;3.28;2.03;;;17.00;55.30;;;;;;5109903;27;45193;-74
2023/03/29 02:40:00;;;;;;;4.78;2.20;;;17.00;55.40;;;;;;5107363;27;45298;-74
2023/03/29 02:42:28;;;;;;;4.20;2.22;;;17.00;55.50;;;;;;5106914;27;47107;-74
2023/03/29 02:44:58;;;;;;;3.50;2.20;;;17.00;55.50;;;;;;5106714;27;45586;-74
2023/03/29 02:47:31;;;;;;;4.50;2.50;;;16.90;55.50;;;;;;5106879;27;45128;-75
2023/03/29 02:49:58;;;;;;;3.30;2.28;;;16.90;55.50;;;;;;5107083;27;45150;-75
2023/03/29 02:52:32;;;;;;;3.45;2.15;;;16.90;55.50;;;;;;5106464;27;47539;-74
2023/03/29 02:55:01;;;;;;;5.47;2.00;;;16.90;55.50;;;;;;5106871;27;45232;-75
2023/03/29 02:57:30;;;;;;;3.92;1.98;;;16.90;55.60;;;;;;5087071;27;45371;-75
2023/03/29 02:59:58;;;;;;;4.57;2.08;;;16.90;55.60;;;;;;5086451;28;45198;-74
2023/03/29 03:02:26;;;;;;;4.20;1.98;;;17.00;55.70;;;;;;5085884;28;46602;-75
2023/03/29 03:04:53;;;;;;;3.40;1.83;;;16.90;55.60;;;;;;5086267;28;45400;-74
2023/03/29 03:07:20;;;;;;;3.75;2.00;;;16.90;55.50;;;;;;5086228;28;45272;-74
2023/03/29 03:09:47;;;;;;;3.60;2.10;;;17.00;55.60;;;;;;5085792;28;45352;-74
2023/03/29 03:12:14;;;;;;;7.03;1.83;;;17.00;55.50;;;;;;5085780;28;46582;-74
2023/03/29 03:14:41;;;;;;;3.60;1.70;;;17.00;55.50;;;;;;5086146;28;45181;-74
2023/03/29 03:17:08;;;;;;;2.72;2.00;;;17.00;55.50;;;;;;5085987;28;45179;-74
2023/03/29 03:19:37;;;;;;;5.05;2.17;;;17.00;55.50;;;;;;5085876;28;45406;-74
2023/03/29 03:22:04;;;;;;;2.75;2.05;;;17.00;55.60;;;;;;5085818;28;48429;-74
2023/03/29 03:24:31;;;;;;;3.47;2.05;;;16.90;55.60;;;;;;5086017;28;45148;-75
2023/03/29 03:26:58;;;;;;;3.35;1.73;;;17.00;55.70;;;;;;5086056;28;45206;-75
2023/03/29 03:29:27;;;;;;;4.15;2.00;;;16.90;55.60;;;;;;5086170;28;45397;-75
2023/03/29 03:31:54;;;;;;;2.55;1.70;;;16.90;55.60;;;;;;5088093;28;47536;-74
2023/03/29 03:34:21;;;;;;;4.68;2.33;;;16.90;55.50;;;;;;5085801;28;45899;-75
2023/03/29 03:36:49;;;;;;;3.70;2.17;;;16.90;55.70;;;;;;5085843;28;45374;-75
2023/03/29 03:39:16;;;;;;;4.88;1.85;;;16.90;55.70;;;;;;5085768;28;45399;-74
2023/03/29 03:41:42;;;;;;;2.92;1.90;;;16.90;55.80;;;;;;5085671;28;47247;-74
2023/03/29 03:44:10;;;;;;;2.85;1.77;;;16.90;55.90;;;;;;5085694;28;45267;-75
2023/03/29 03:46:37;;;;;;;3.35;1.80;;;16.90;55.90;;;;;;5085588;28;45255;-74
2023/03/29 03:49:04;;;;;;;4.28;1.67;;;16.90;55.90;;;;;;5085787;28;45252;-75
2023/03/29 03:51:31;;;;;;;3.45;1.75;;;16.90;55.90;;;;;;5085566;28;47620;-74
2023/03/29 03:53:59;;;;;;;2.35;1.52;;;16.90;56.00;;;;;;5085582;28;45188;-75
2023/03/29 03:56:28;;;;;;;3.88;1.80;;;16.90;56.00;;;;;;5085630;28;45080;-75
2023/03/29 03:58:55;;;;;;;3.05;1.65;;;16.90;56.10;;;;;;5085760;28;45130;-74
2023/03/29 04:01:22;;;;;;;3.33;1.55;;;17.00;56.10;;;;;;5084756;28;46796;-74
2023/03/29 04:03:49;;;;;;;2.28;1.55;;;16.90;56.20;;;;;;5085766;28;45134;-74
2023/03/29 04:06:16;;;;;;;3.40;1.98;;;17.00;56.30;;;;;;5085556;28;45179;-75
2023/03/29 04:08:43;;;;;;;3.92;1.80;;;17.00;56.30;;;;;;5085333;28;45115;-75
2023/03/29 04:11:11;;;;;;;2.95;1.63;;;17.00;56.20;;;;;;5085066;28;46583;-75
2023/03/29 04:13:38;;;;;;;2.58;1.55;;;17.00;56.40;;;;;;5085179;28;45264;-74
2023/03/29 04:16:06;;;;;;;1.98;1.30;;;16.90;56.40;;;;;;5085692;28;45289;-75
2023/03/29 04:18:32;;;;;;;2.65;1.58;;;16.90;55.80;;;;;;5085688;28;45230;-75
2023/03/29 04:20:59;;;;;;;2.50;1.60;;;16.90;55.40;;;;;;5086699;27;46400;-76
2023/03/29 04:23:26;;;;;;;2.60;1.73;;;16.90;55.50;;;;;;5088821;28;45366;-76
2023/03/29 04:25:55;;;;;;;3.90;1.58;;;16.90;55.90;;;;;;5091234;28;45331;-75
2023/03/29 04:28:23;;;;;;;3.50;1.67;;;16.90;56.10;;;;;;5088624;28;45677;-75
2023/03/29 04:30:51;;;;;;;1.90;1.40;;;16.90;56.10;;;;;;5088506;28;46567;-75
2023/03/29 04:33:17;;;;;;;2.67;1.27;;;16.90;56.20;;;;;;5088494;28;45369;-75
2023/03/29 04:35:44;;;;;;;1.98;1.30;;;16.90;56.20;;;;;;5088762;28;45232;-75
2023/03/29 04:38:11;;;;;;;2.38;1.60;;;16.90;56.30;;;;;;5088682;28;45139;-75
2023/03/29 04:40:38;;;;;;;2.05;1.38;;;16.90;56.30;;;;;;5088418;28;47663;-75
2023/03/29 04:43:05;;;;;;;2.53;1.38;;;16.90;56.30;;;;;;5088379;28;45330;-75
2023/03/29 04:45:33;;;;;;;3.35;1.40;;;16.90;56.30;;;;;;5088575;28;45359;-75
2023/03/29 04:48:00;;;;;;;2.15;1.23;;;16.90;56.30;;;;;;5088275;28;45278;-75
2023/03/29 04:50:27;;;;;;;2.80;1.50;;;17.00;56.50;;;;;;5088307;28;47263;-75
2023/03/29 04:52:53;;;;;;;2.22;1.38;;;16.90;56.40;;;;;;5088254;28;45241;-75
2023/03/29 04:55:20;;;;;;;2.28;1.23;;;16.90;56.40;;;;;;5088295;28;45351;-75
2023/03/29 04:57:47;;;;;;;2.47;1.40;;;16.90;56.40;;;;;;5088246;28;45243;-75
2023/03/29 05:00:15;;;;;;;3.45;1.23;;;16.90;56.40;;;;;;5105127;27;46413;-75
2023/03/29 05:02:44;;;;;;;1.55;1.13;;;16.90;56.40;;;;;;5108156;27;45787;-75
2023/03/29 05:05:12;;;;;;;1.77;1.30;;;16.90;55.70;;;;;;5108333;27;45283;-75
2023/03/29 05:07:39;;;;;;;3.45;1.45;;;16.90;55.20;;;;;;5108632;27;45310;-75
2023/03/29 05:10:08;;;;;;;2.80;1.30;;;16.90;55.50;;;;;;5108430;27;47331;-74
2023/03/29 05:12:35;;;;;;;1.70;1.17;;;16.90;55.80;;;;;;5108079;27;45355;-75
2023/03/29 05:15:02;;;;;;;3.63;1.60;;;16.90;56.30;;;;;;5093212;27;45267;-75
2023/03/29 05:17:30;;;;;;;2.05;1.00;;;16.90;55.90;;;;;;5087665;28;45440;-75
2023/03/29 05:19:58;;;;;;;2.58;1.45;;;16.90;55.90;;;;;;5090134;28;46287;-74
2023/03/29 05:22:25;;;;;;;2.10;1.20;;;16.90;55.90;;;;;;5087761;28;45225;-74
2023/03/29 05:24:52;;;;;;;1.38;1.00;;;16.90;55.90;;;;;;5087607;28;45182;-75
2023/03/29 05:27:21;;;;;;;1.90;1.10;;;16.90;56.00;;;;;;5087298;28;45210;-75
2023/03/29 05:29:48;;;;;;;1.80;1.10;;;17.00;56.00;;;;;;5087126;28;48136;-75
2023/03/29 05:32:15;;;;;;;2.60;1.30;;;16.90;56.00;;;;;;5087305;27;45083;-75
2023/03/29 05:34:42;;;;;;;1.52;1.00;;;17.00;56.00;;;;;;5107887;27;45225;-74
2023/03/29 05:37:11;;;;;;;2.72;1.15;;;17.00;56.10;;;;;;5108375;27;45337;-74
2023/03/29 05:39:38;;;;;;;2.28;1.10;;;17.00;56.00;;;;;;5107791;27;45327;-74
2023/03/29 05:42:05;;;;;;;2.63;1.20;;;17.00;56.00;;;;;;5107849;27;45267;-74
2023/03/29 05:44:32;;;;;;;1.75;1.10;;;17.00;56.10;;;;;;5107465;27;45304;-74
2023/03/29 05:46:58;;;;;;;2.00;1.02;;;17.00;56.20;;;;;;5108017;27;45494;-74
2023/03/29 05:49:25;;;;;;;1.83;0.98;;;16.90;56.30;;;;;;5107501;27;46652;-74
2023/03/29 05:51:55;;;;;;;1.55;1.20;;;16.90;56.60;;;;;;5107653;27;45267;-74
2023/03/29 05:54:24;;;;;;;1.33;0.90;;;16.90;56.70;;;;;;5107997;27;45201;-74
2023/03/29 05:56:51;;;;;;;1.33;1.00;;;16.90;56.80;;;;;;5107780;27;45180;-74
2023/03/29 05:59:18;;;;;;;1.08;0.82;;;17.00;56.90;;;;;;5107725;27;47539;-74
2023/03/29 06:01:46;;;;;;;1.30;1.10;;;16.90;56.10;;;;;;5107040;27;45327;-75
2023/03/29 06:04:13;;;;;;;1.60;0.88;;;16.90;55.40;;;;;;5107917;27;45199;-75
2023/03/29 06:06:40;;;;;;;1.17;0.95;;;16.80;54.90;;;;;;5107749;27;45513;-75
2023/03/29 06:09:09;;;;;;;2.25;1.00;;;16.80;54.70;;;;;;5107289;27;47576;-74
2023/03/29 06:11:38;;;;;;;1.58;1.00;;;16.80;54.70;;;;;;5107601;27;45324;-75
2023/03/29 06:14:05;;;;;;;1.75;1.10;;;16.80;54.40;;;;;;5110451;27;45206;-75
2023/03/29 06:16:32;;;;;;;3.25;1.00;;;16.80;54.30;;;;;;5107779;27;45109;-75
2023/03/29 06:18:59;;;;;;;2.78;0.90;;;16.80;54.20;;;;;;5107468;27;45350;-75
2023/03/29 06:21:27;;;;;;;2.58;1.25;;;16.80;53.90;;;;;;5107528;27;45346;-75
2023/03/29 06:23:54;;;;;;;1.58;1.00;;;16.80;54.00;;;;;;5100573;27;45390;-75
2023/03/29 06:26:20;;;;;;;1.35;0.93;;;16.80;53.80;;;;;;5084992;27;45550;-75
2023/03/29 06:28:48;;;;;;;1.70;0.98;;;16.80;53.80;;;;;;5097488;27;47261;-75
2023/03/29 06:31:15;;;;;;;2.03;0.90;;;16.80;53.70;;;;;;5097580;27;45450;-75
2023/03/29 06:33:43;;;;;;;1.77;1.08;;;16.70;53.60;;;;;;5091325;27;45369;-75
2023/03/29 06:36:10;;;;;;;2.47;0.93;;;16.80;54.10;;;;;;5086320;28;45404;-75
2023/03/29 06:38:37;;;;;;;1.90;1.00;;;16.80;54.70;;;;;;5089008;27;46947;-75
2023/03/29 06:41:05;;;;;;;1.92;1.20;;;16.80;55.00;;;;;;5098401;27;45292;-75
2023/03/29 06:43:33;;;;;;;1.08;0.82;;;16.80;55.20;;;;;;5087653;27;45311;-75
2023/03/29 06:46:01;;;;;;;1.73;0.75;;;16.80;55.40;;;;;;5099489;27;45292;-75
2023/03/29 06:48:28;;;;;;;3.85;1.17;;;16.80;55.50;;;;;;5085526;28;47547;-75
2023/03/29 06:50:55;;;;;;;1.85;1.00;;;16.80;55.70;;;;;;5089428;27;45358;-75
2023/03/29 06:53:22;;;;;;;1.55;0.98;;;16.80;55.70;;;;;;5087224;27;45423;-75
2023/03/29 06:55:50;;;;;;;1.95;1.17;;;16.90;55.90;;;;;;5106818;27;45414;-75
2023/03/29 06:58:17;;;;;;;1.90;1.00;;;16.80;55.90;;;;;;5106578;27;47680;-76
2023/03/29 07:00:44;;;;;;;1.13;0.80;;;16.90;55.90;;;;;;5106559;27;45232;-76
2023/03/29 07:03:18;;;;;;;2.20;1.25;;;16.90;56.00;;;;;;5089796;27;45333;-76
2023/03/29 07:05:46;;;;;;;1.65;1.10;;;16.90;56.20;;;;;;5086817;28;45134;-76
2023/03/29 07:08:15;;;;;;;2.42;1.23;;;16.90;56.10;;;;;;5088747;28;47570;-75
2023/03/29 07:10:44;;;;;;;2.95;1.20;;;17.00;56.30;;;;;;5086200;28;45129;-75
2023/03/29 07:13:12;;;;;;;1.40;0.90;;;17.00;56.10;;;;;;5086192;28;45307;-75
2023/03/29 07:15:39;;;;;;;1.33;0.98;;;17.00;56.20;;;;;;5086286;28;45375;-75
2023/03/29 07:18:07;;;;;;;2.97;1.00;;;17.00;56.30;;;;;;5093101;27;46258;-75
2023/03/29 07:20:37;;;;;;;1.40;0.90;;;17.00;56.50;;;;;;5091516;27;45376;-70
2023/03/29 07:23:04;;;;;;;2.55;1.45;;;17.00;56.30;;;;;;5096353;27;45450;-75
2023/03/29 07:25:31;;;;;;;2.97;1.00;;;17.00;56.50;;;;;;5085823;28;45419;-74
2023/03/29 07:27:58;;;;;;;1.42;0.93;;;17.00;56.60;;;;;;5085966;28;47304;-75
2023/03/29 07:30:28;;;;;;;1.30;0.82;;;17.00;56.80;;;;;;5085987;28;45292;-74
2023/03/29 07:32:57;;;;;;;1.08;0.80;;;17.00;56.90;;;;;;5086122;28;45269;-75
2023/03/29 07:35:25;;;;;;;1.23;0.85;;;17.00;57.00;;;;;;5085960;28;45622;-75
2023/03/29 07:37:54;;;;;;;1.48;0.80;;;17.00;58.30;;;;;;5085513;28;46493;-75
2023/03/29 07:40:23;;;;;;;2.70;0.98;;;17.00;57.20;;;;;;5085781;28;45179;-75
2023/03/29 07:42:51;;;;;;;3.78;0.98;;;17.00;57.50;;;;;;5085981;28;45226;-75
2023/03/29 07:45:19;;;;;;;1.42;1.00;;;17.00;57.30;;;;;;5085921;28;45544;-75
2023/03/29 07:47:47;;;;;;;2.05;1.20;;;17.00;57.20;;;;;;5085549;28;46746;-75
2023/03/29 07:50:14;;;;;;;1.20;0.80;;;17.00;57.30;;;;;;5085426;28;45155;-75
2023/03/29 07:52:42;;;;;;;3.15;1.00;;;17.00;58.50;;;;;;5085401;28;45318;-75
2023/03/29 07:55:12;;;;;;;2.72;1.13;;;17.10;57.50;;;;;;5086736;27;45546;-75
2023/03/29 07:57:39;;;;;;;2.08;1.15;;;17.10;57.60;;;;;;5088385;28;47620;-75
2023/03/29 08:00:13;;;;;;;1.60;1.05;;;17.10;57.60;;;;;;5092839;27;45370;-75
2023/03/29 08:02:42;;;;;;;1.40;0.90;;;17.10;57.50;;;;;;5067749;28;45376;-75
2023/03/29 08:05:09;;;;;;;3.63;1.00;;;17.10;57.80;;;;;;5100715;27;45315;-75
2023/03/29 08:07:36;;;;;;;1.17;0.95;;;17.10;57.90;;;;;;5104863;27;46849;-74
2023/03/29 08:10:03;;;;;;;1.10;1.00;;;17.00;57.70;;;;;;5087616;28;45168;-74
2023/03/29 08:12:32;;;;;;;2.25;0.82;;;17.00;57.90;;;;;;5105087;27;45358;-74
2023/03/29 08:14:58;;;;;;;1.30;0.90;;;17.00;58.10;;;;;;5087921;28;45447;-74
2023/03/29 08:17:25;;;;;;;0.95;0.80;;;17.00;58.10;;;;;;5069111;28;46888;-75
2023/03/29 08:19:52;;;;;;;1.20;0.90;;;17.00;58.10;;;;;;5095782;27;45234;-74
2023/03/29 08:22:19;;;;;;;1.10;0.90;;;17.00;58.10;;;;;;5109481;27;45248;-74
2023/03/29 08:24:46;;;;;;;2.38;0.98;;;17.10;58.30;;;;;;5109566;27;45409;-75
2023/03/29 08:27:13;;;;;;;2.47;0.95;;;17.00;58.30;;;;;;5109066;27;47731;-74
2023/03/29 08:29:41;;;;;;;1.13;0.77;;;17.00;58.20;;;;;;5108860;27;45216;-74
2023/03/29 08:32:07;;;;;;;1.35;0.90;;;17.00;58.10;;;;;;5109144;27;45193;-74
2023/03/29 08:34:35;;;;;;;1.13;0.57;;;17.00;58.20;;;;;;5109239;27;45471;-74
2023/03/29 08:37:02;;;;;;;2.63;0.93;;;17.10;58.30;;;;;;5108978;27;47266;-75
2023/03/29 08:39:28;;;;;;;1.83;0.80;;;17.10;58.20;;;;;;5109083;27;45249;-74
2023/03/29 08:42:09;;;;;;;1.45;1.00;;;17.10;58.30;;;;;;5109077;27;45330;-75
2023/03/29 08:44:55;;;;;;;1.98;0.80;;;17.10;58.20;;;;;;5109191;27;45052;-75
2023/03/29 08:47:29;;;;;;;2.78;0.82;;;17.10;58.20;;;;;;5109052;27;47849;-75
2023/03/29 08:49:57;;;;;;;1.88;0.80;;;17.10;58.30;;;;;;5109301;27;45206;-75
2023/03/29 08:52:33;;;;;;;2.17;1.00;;;17.10;58.30;;;;;;5108778;27;45264;-75
2023/03/29 08:55:02;;;;;;;1.20;0.98;;;17.10;58.40;;;;;;5112105;27;45542;-75
2023/03/29 08:57:31;;;;;;;1.05;0.70;;;17.10;58.50;;;;;;5108736;27;47040;-75
2023/03/29 09:00:03;;;;;;;1.20;0.80;;;17.10;58.50;;;;;;5108695;27;45259;-74
2023/03/29 09:02:33;;;;;;;1.40;0.75;;;17.10;58.60;;;;;;5108256;27;45218;-75
2023/03/29 09:05:07;;;;;;;2.80;0.90;;;17.10;58.60;;;;;;5108927;27;45163;-75
2023/03/29 09:07:34;;;;;;;1.30;0.93;;;17.10;58.80;;;;;;5107733;27;47127;-75
2023/03/29 09:10:02;;;;;;;1.67;0.90;;;17.10;58.80;;;;;;5091558;27;45253;-74
2023/03/29 09:12:40;;;;;;;1.52;0.77;;;17.10;58.80;;;;;;5087470;28;45242;-75
2023/03/29 09:15:15;;;;;;;1.42;0.70;;;17.00;59.10;;;;;;5088285;27;45430;-75
2023/03/29 09:17:55;;;;;;;1.55;0.80;;;17.00;59.00;;;;;;5086630;28;47962;-75
2023/03/29 09:20:32;;;;;;;1.10;0.95;;;17.00;59.60;;;;;;5105510;27;45434;-75
2023/03/29 09:23:13;;;;;;;2.00;0.88;;;17.00;59.90;;;;;;5107111;27;45190;-75
2023/03/29 09:25:52;;;;;;;1.48;0.82;;;17.10;60.20;;;;;;5078847;27;45432;-74
2023/03/29 09:28:24;;;;;;;1.45;0.80;;;17.10;60.10;;;;;;5107775;27;48380;-74
2023/03/29 09:30:58;;;;;;;0.95;0.63;;;17.10;60.10;;;;;;5092757;27;45296;-74
2023/03/29 09:33:27;;;;;;;0.95;0.70;;;17.10;60.10;;;;;;5094432;27;45368;-75
2023/03/29 09:36:01;;;;;;;1.83;0.80;;;17.20;60.10;;;;;;5094342;27;45532;-75
2023/03/29 09:38:29;;;;;;;0.88;0.70;;;17.20;60.30;;;;;;5086451;27;46181;-75
2023/03/29 09:41:00;;;;;;;0.82;0.80;;;17.20;60.40;;;;;;5090495;27;45365;-76
2023/03/29 09:43:31;;;;;;;3.42;0.90;;;17.20;60.30;;;;;;5086564;27;45406;-75
2023/03/29 09:46:04;;;;;;;0.63;0.50;;;17.20;60.30;;;;;;5085573;28;45285;-74
2023/03/29 09:48:36;;;;;;;1.48;0.88;;;17.20;60.20;;;;;;5087398;28;45220;-74
2023/03/29 09:51:06;;;;;;;1.88;0.80;;;17.20;60.20;;;;;;5094607;27;45388;-74
2023/03/29 09:53:33;;;;;;;2.58;0.90;;;17.20;60.10;;;;;;5104996;27;45302;-74
2023/03/29 09:56:01;;;;;;;1.75;0.88;;;17.20;61.00;;;;;;5090309;27;45336;-74
2023/03/29 09:58:31;;;;;;;1.63;0.80;;;17.20;60.20;;;;;;5100273;27;47297;-75
2023/03/29 10:01:03;;;;;;;1.60;0.88;;;17.20;60.20;;;;;;5091230;27;45440;-74
2023/03/29 10:03:33;;;;;;;1.70;0.80;;;17.20;60.20;;;;;;5090983;27;45426;-75
2023/03/29 10:06:01;;;;;;;2.30;0.73;;;17.20;60.10;;;;;;5085493;28;45241;-74
2023/03/29 10:08:30;;;;;;;0.90;0.57;;;17.20;60.10;;;;;;5084664;28;47006;-74
2023/03/29 10:10:58;;;;;;;1.08;0.70;;;17.20;60.20;;;;;;5097459;27;45300;-74
2023/03/29 10:13:29;;;;;;;2.13;0.90;;;17.20;60.30;;;;;;5093309;27;45391;-74
2023/03/29 10:16:03;;;;;;;1.67;0.90;;;17.20;60.40;;;;;;5085265;28;45396;-74
2023/03/29 10:18:30;;;;;;;3.03;0.80;;;17.20;60.50;;;;;;5070377;28;46075;-75
2023/03/29 10:21:02;;;;;;;0.68;0.57;;;17.20;60.50;;;;;;5094276;27;45462;-74
2023/03/29 10:23:33;;;;;;;1.27;0.60;;;17.20;60.70;;;;;;5105977;27;45349;-75
2023/03/29 10:26:03;;;;;;;1.25;0.85;;;17.20;60.50;;;;;;5105346;27;45485;-74
2023/03/29 10:28:32;;;;;;;1.67;0.80;;;17.20;60.50;;;;;;5105558;27;48296;-75
2023/03/29 10:31:02;;;;;;;1.65;0.80;;;17.30;60.50;;;;;;5096177;27;45344;-75
2023/03/29 10:33:33;;;;;;;2.05;0.80;;;17.20;60.60;;;;;;5096446;27;45349;-75
2023/03/29 10:36:02;;;;;;;0.88;0.63;;;17.20;60.60;;;;;;5090571;27;45405;-75
2023/03/29 10:38:29;;;;;;;2.42;0.70;;;17.20;60.50;;;;;;5096379;27;47314;-75
2023/03/29 10:41:06;;;;;;;1.63;0.60;;;17.20;60.50;;;;;;5103093;27;45253;-75
2023/03/29 10:43:38;;;;;;;0.93;0.65;;;17.20;60.50;;;;;;5096430;27;45309;-75
2023/03/29 10:46:11;;;;;;;1.10;0.70;;;17.20;60.50;;;;;;5101095;27;45625;-75
2023/03/29 10:48:40;;;;;;;0.88;0.60;;;17.20;60.50;;;;;;5105758;27;46319;-75
2023/03/29 10:51:07;;;;;;;0.70;0.45;;;17.20;60.50;;;;;;5097549;27;45317;-74
2023/03/29 10:53:36;;;;;;;1.15;0.75;;;17.20;60.30;;;;;;5088463;27;45428;-75
2023/03/29 10:56:17;;;;;;;1.17;0.60;;;17.20;60.50;;;;;;5089979;27;45310;-74
2023/03/29 10:59:04;;;;;;;1.10;0.80;;;17.20;60.50;;;;;;5106182;27;47141;-75
2023/03/29 11:01:38;;;;;;;0.80;0.50;;;17.30;60.50;;;;;;5105920;27;45347;-75
2023/03/29 11:04:22;;;;;;;0.50;0.50;;;17.30;61.50;;;;;;5105068;27;45453;-75
2023/03/29 11:06:58;;;;;;;1.45;0.68;;;17.30;60.60;;;;;;5070587;27;45516;-74
2023/03/29 11:09:35;;;;;;;0.85;0.60;;;17.30;60.70;;;;;;5101489;27;45361;-74
2023/03/29 11:12:10;;;;;;;1.45;0.60;;;17.30;60.90;;;;;;5095962;27;45697;-75
2023/03/29 11:14:44;;;;;;;1.52;0.80;;;17.30;60.80;;;;;;5099904;27;45286;-75
2023/03/29 11:17:22;;;;;;;1.05;0.60;;;17.30;60.90;;;;;;5097117;27;45365;-74
2023/03/29 11:20:04;;;;;;;1.15;0.60;;;17.20;60.90;;;;;;5083779;28;45491;-73
2023/03/29 11:22:41;;;;;;;2.25;0.70;;;17.20;60.70;;;;;;5085987;27;45699;-73
2023/03/29 11:25:23;;;;;;;1.38;0.60;;;17.20;61.00;;;;;;5081752;27;45246;-73
2023/03/29 11:27:56;;;;;;;0.77;0.50;;;17.20;61.20;;;;;;5090413;27;45308;-72
2023/03/29 11:30:30;;;;;;;1.48;0.60;;;17.20;61.20;;;;;;5097002;27;47011;-73
2023/03/29 11:33:05;;;;;;;1.98;0.70;;;17.20;61.30;;;;;;5097228;27;45451;-73
2023/03/29 11:35:45;;;;;;;1.38;0.60;;;17.20;61.20;;;;;;5083281;28;45643;-73
2023/03/29 11:38:21;;;;;;;1.88;0.50;;;17.20;61.00;;;;;;5091773;27;45339;-72
2023/03/29 11:40:55;;;;;;;1.42;0.70;;;17.30;61.40;;;;;;5085461;27;45297;-72
2023/03/29 11:43:26;;;;;;;2.97;0.60;;;17.30;61.60;;;;;;5082902;28;45365;-72
2023/03/29 11:46:01;;;;;;;1.75;0.60;;;17.30;61.50;;;;;;5089347;27;45413;-82
2023/03/29 11:48:33;;;;;;;4.57;0.82;;;17.30;61.40;;;;;;5109789;27;45328;-81
2023/03/29 11:51:10;;;;;;;3.95;0.80;;;17.30;61.60;;;;;;5109947;27;46612;-82
2023/03/29 11:53:45;;;;;;;4.60;1.00;;;17.40;61.90;;;;;;5110022;27;45137;-81
2023/03/29 11:56:15;;;;;;;1.38;0.75;;;17.40;62.10;;;;;;5110496;27;45179;-82
2023/03/29 11:58:48;;;;;;;4.80;0.90;;;17.40;62.10;;;;;;5110644;27;45230;-81
2023/03/29 12:01:21;;;;;;;1.38;0.63;;;17.40;62.20;;;;;;5109621;27;47256;-82
2023/03/29 12:03:52;;;;;;;4.18;0.77;;;17.40;62.10;;;;;;5109815;27;45336;-81
2023/03/29 12:06:27;;;;;;;1.05;0.68;;;17.30;62.10;;;;;;5110130;27;45226;-82
2023/03/29 12:08:59;;;;;;;2.55;0.82;;;17.30;62.20;;;;;;5109751;27;45139;-81
2023/03/29 12:11:30;;;;;;;1.08;0.57;;;17.30;62.20;;;;;;5109472;27;45504;-82
2023/03/29 12:14:02;;;;;;;1.30;0.55;;;17.30;62.10;;;;;;5106757;27;45137;-81
2023/03/29 12:16:34;;;;;;;0.98;0.50;;;17.30;62.20;;;;;;5109657;27;45157;-82
2023/03/29 12:19:06;;;;;;;1.42;0.80;;;17.30;62.50;;;;;;5109865;27;45355;-81
2023/03/29 12:21:36;;;;;;;1.00;0.77;;;17.30;62.60;;;;;;5109599;27;45193;-82
2023/03/29 12:24:03;;;;;;;1.05;0.57;;;17.30;62.80;;;;;;5110029;27;45246;-81
2023/03/29 12:26:45;;;;;;;1.17;0.50;;;17.30;62.30;;;;;;5109410;27;45295;-82
2023/03/29 12:29:28;;;;;;;1.05;0.60;;;17.30;62.50;;;;;;5112219;27;45196;-82
2023/03/29 12:32:01;;;;;;;0.70;0.50;;;17.30;62.60;;;;;;5109291;27;45442;-82
2023/03/29 12:34:55;;;;;;;0.88;0.60;;;17.40;62.40;;;;;;5109563;27;46035;-82
2023/03/29 12:37:36;;;;;;;2.40;0.63;;;17.40;62.60;;;;;;5109507;27;45075;-82
2023/03/29 12:40:12;;;;;;;1.52;0.70;;;17.40;62.70;;;;;;5109590;27;45665;-81
2023/03/29 12:42:47;;;;;;;1.88;0.60;;;17.40;62.80;;;;;;5105138;27;46550;-82
2023/03/29 12:45:20;;;;;;;0.40;0.40;;;17.40;62.70;;;;;;5109000;27;45319;-82
2023/03/29 12:47:50;;;;;;;1.15;0.70;;;17.40;62.60;;;;;;5109729;27;45341;-82
2023/03/29 12:50:27;;;;;;;0.85;0.60;;;17.40;62.60;;;;;;5100617;27;45440;-82
2023/03/29 12:53:03;;;;;;;1.75;0.57;;;17.30;62.80;;;;;;5108827;27;46633;-82
2023/03/29 12:55:32;;;;;;;1.67;0.55;;;17.30;62.60;;;;;;5109046;27;45450;-82
2023/03/29 12:58:05;;;;;;;1.15;0.50;;;17.30;62.80;;;;;;5108987;27;45181;-81
2023/03/29 13:00:42;;;;;;;1.77;0.60;;;17.30;62.70;;;;;;5108875;27;45613;-82